• Join FlightAware (Why Join?)
  • Login
  • US Flag 
02:32PM EDT


 

Airport Tracker/Info


-or-


 

Live Flight TrackerFlight Track Log ✈ N3133R ✈ 14-Nov-2013 ✈ KLIT - KHRO

Flight Track Log - Related Links

Times and Time Zones

All times are in EST time to prevent confusion due to time zone crossing. See the N3133R flight status page for this flight to view local times or setup timezone preferences in your user account.

Time Position Orientation Groundspeed Altitude Reporting Facility
EST Latitude Longitude Course Direction KTS MPH feet Rate Location/Type
05:19PM 34.7253 -92.2447 335° Northwest 82 94 800  Level Memphis Center
05:20PM 34.7306 -92.2722 283° West 101 116 1,700 660 Climbing Memphis Center
05:21PM 34.7425 -92.2814 328° Northwest 100 115 1,900 540 Climbing Memphis Center
05:21PM 34.7564 -92.2908 331° Northwest 104 120 2,300 660 Climbing Memphis Center
05:22PM 34.7661 -92.2978 330° Northwest 97 112 2,600 660 Climbing Memphis Center
05:22PM 34.7781 -92.3072 327° Northwest 98 113 3,000 540 Climbing Memphis Center
05:23PM 34.7894 -92.3136 335° Northwest 98 113 3,200 600 Climbing Memphis Center
05:23PM 34.8017 -92.3208 334° Northwest 94 108 3,600 720 Climbing Memphis Center
05:24PM 34.8186 -92.3303 335° Northwest 96 110 4,000 540 Climbing Memphis Center
05:24PM 34.8250 -92.3319 348° North 98 113 4,200 660 Climbing Memphis Center
05:25PM 34.9197 -92.3349 335° Northwest  Level FlightAware Approximate
05:25PM 34.8447 -92.3406 340° North 97 112 4,700  Level Memphis Center
05:25PM 34.8550 -92.3481 329° Northwest 99 114 4,900 540 Climbing Memphis Center
05:26PM 34.8706 -92.3547 341° North 99 114 5,300 660 Climbing Memphis Center
05:26PM 34.8828 -92.3639 328° Northwest 100 115 5,700 540 Climbing Memphis Center
05:27PM 34.8958 -92.3683 344° North 100 115 5,900 180 Climbing Memphis Center
05:27PM 34.9083 -92.3775 329° Northwest 106 122 5,900 60 Level Memphis Center
05:28PM 34.9253 -92.3867 336° Northwest 109 125 6,000 60 Climbing Memphis Center
05:28PM 34.9428 -92.3983 331° Northwest 133 153 6,000  Level Memphis Center
05:29PM 34.9678 -92.4092 340° North 128 147 6,000  Level Memphis Center
05:30PM 34.9853 -92.4186 336° Northwest 147 169 6,000  Level Memphis Center
05:30PM 35.0042 -92.4281 338° Northwest 136 157 6,000  Level Memphis Center
05:31PM 35.0175 -92.4394 325° Northwest 139 160 6,000  Level Memphis Center
05:31PM 35.0383 -92.4497 338° Northwest 139 160 6,000  Level Memphis Center
05:32PM 35.0497 -92.4603 323° Northwest 136 157 6,000  Level Memphis Center
05:32PM 35.0714 -92.4708 338° Northwest 138 159 6,000 -120 Level Memphis Center
05:33PM 35.0839 -92.4786 333° Northwest 138 159 5,900 -120 Descending Memphis Center
05:33PM 35.1067 -92.4911 336° Northwest 138 159 5,900  Level Memphis Center
05:34PM 35.1422 -92.5111 335° Northwest 139 160 5,900  Level Memphis Center
05:35PM 35.1853 -92.5358 335° Northwest 141 162 6,000  Climbing Memphis Center
05:36PM 35.2200 -92.5572 333° Northwest 141 162 6,000  Level Memphis Center
05:37PM 35.2558 -92.5786 334° Northwest 142 163 6,000  Level Memphis Center
05:38PM 35.2922 -92.5986 336° Northwest 143 165 6,100  Climbing Memphis Center
05:39PM 35.3278 -92.6197 334° Northwest 143 165 6,000 -60 Descending Memphis Center
05:40PM 35.3706 -92.6450 334° Northwest 143 165 6,000  Level Memphis Center
05:42PM 35.4058 -92.6639 336° Northwest 142 163 6,000  Level Memphis Center
05:43PM 35.4414 -92.6828 337° Northwest 140 161 6,000  Level Memphis Center
05:44PM 35.4758 -92.7036 334° Northwest 139 160 6,000  Level Memphis Center
05:45PM 35.5103 -92.7236 335° Northwest 138 159 6,000  Level Memphis Center
05:46PM 35.5453 -92.7442 334° Northwest 139 160 6,000  Level Memphis Center
05:47PM 35.5853 -92.7703 332° Northwest 138 159 6,000  Level Memphis Center
05:48PM 35.6186 -92.7908 333° Northwest 136 157 6,000  Level Memphis Center
05:49PM 35.6528 -92.8108 335° Northwest 136 157 6,000  Level Memphis Center
05:50PM 35.6892 -92.8272 340° North 138 159 6,100  Climbing Memphis Center
05:51PM 35.7236 -92.8467 335° Northwest 137 158 6,100 -60 Level Memphis Center
05:52PM 35.7653 -92.8711 335° Northwest 138 159 6,000 -60 Descending Memphis Center
05:53PM 35.7997 -92.8928 333° Northwest 139 160 6,000  Level Memphis Center
05:54PM 35.8333 -92.9119 335° Northwest 136 157 6,000  Level Memphis Center
05:55PM 35.8708 -92.9278 341° North 139 160 6,000  Level Memphis Center
05:56PM 35.9047 -92.9458 337° Northwest 137 158 6,000  Level Memphis Center
05:57PM 35.9453 -92.9675 337° Northwest 134 154 6,000 -240 Level Memphis Center
05:58PM 35.9819 -92.9894 334° Northwest 138 159 5,600 -480 Descending Memphis Center
05:59PM 36.0197 -93.0108 335° Northwest 145 167 5,100 -480 Descending Memphis Center
06:00PM 36.0594 -93.0333 335° Northwest 151 174 4,600 -540 Descending Memphis Center
06:01PM 36.0989 -93.0550 336° Northwest 154 177 4,000 -600 Descending Memphis Center
06:03PM 36.1401 -93.0809 333° Northwest  Level FlightAware Approximate
06:10PM 36.2500 -93.1500 North  Level FlightAware Approximate
06:11PM 36.2615 -93.1547 North  Level Estimated
06:12PM 36.2615 -93.1547 North  Level Estimated
06:13PM 36.2615 -93.1547 North  Level Estimated
06:14PM 36.2615 -93.1547 North  Level Estimated
06:15PM 36.2615 -93.1547 North  Level Estimated
06:16PM 36.2615 -93.1547 North  Level Estimated